Time;durP1;ratioP1;P1;durP2;ratioP2;P2;SDS_P1;SDS_P2;PMS_P1;PMS_P2;Temp;Humidity;BMP_temperature;BMP_pressure;BME280_temperature;BME280_humidity;BME280_pressure;Samples;Min_cycle;Max_cycle;Signal;HPM_P1;HPM_P2
2022/06/09 00:00:47;;;;;;;15.07;8.23;;;;;;;-144.82;100.00;71671.09;4995237;28;20395;-80
2022/06/09 00:03:22;;;;;;;10.75;7.93;;;;;;;-144.82;100.00;71671.09;4978776;28;20182;-80
2022/06/09 00:05:48;;;;;;;13.30;8.18;;;;;;;-144.82;100.00;71671.09;4994995;28;20022;-78
2022/06/09 00:08:15;;;;;;;11.60;7.68;;;;;;;-144.82;100.00;71671.09;4994707;28;20102;-79
2022/06/09 00:10:43;;;;;;;11.75;8.25;;;;;;;-144.82;100.00;71671.09;4996014;28;20026;-79
2022/06/09 00:13:09;;;;;;;13.13;8.10;;;;;;;-144.82;100.00;71671.09;4996660;28;20027;-80
2022/06/09 00:15:34;;;;;;;10.80;7.68;;;;;;;-144.82;100.00;71671.09;4996410;28;20049;-79
2022/06/09 00:18:00;;;;;;;12.73;7.53;;;;;;;-144.82;100.00;71671.09;4997412;28;20031;-78
2022/06/09 00:20:25;;;;;;;12.27;8.65;;;;;;;-144.82;100.00;71671.09;4995413;28;20459;-78
2022/06/09 00:22:51;;;;;;;12.10;7.85;;;;;;;-144.82;100.00;71671.09;4995285;28;20033;-80
2022/06/09 00:25:16;;;;;;;10.25;7.95;;;;;;;-144.82;100.00;71671.09;4996082;28;20054;-80
2022/06/09 00:27:42;;;;;;;9.68;7.50;;;;;;;-144.82;100.00;71671.09;4994814;28;20030;-78
2022/06/09 00:30:09;;;;;;;12.82;8.32;;;;;;;-144.82;100.00;71671.09;4978285;28;20069;-79
2022/06/09 00:32:35;;;;;;;12.80;8.18;;;;;;;-144.82;100.00;71671.09;4994527;28;20041;-79
2022/06/09 00:35:00;;;;;;;11.77;9.07;;;;;;;-144.82;100.00;71671.09;4978035;28;20022;-77
2022/06/09 00:37:26;;;;;;;13.40;8.98;;;;;;;-144.82;100.00;71671.09;4994937;28;20037;-79
2022/06/09 00:39:51;;;;;;;12.48;8.70;;;;;;;-144.82;100.00;71671.09;4995177;28;20029;-79
2022/06/09 00:42:17;;;;;;;13.73;8.43;;;;;;;-144.82;100.00;71671.09;4994161;28;20582;-80
2022/06/09 00:44:42;;;;;;;13.88;9.30;;;;;;;-144.82;100.00;71671.09;4994089;28;20026;-79
2022/06/09 00:47:22;;;;;;;13.95;9.10;;;;;;;-144.82;100.00;71671.09;4994065;28;20109;-79
2022/06/09 00:50:01;;;;;;;12.88;8.93;;;;;;;-144.82;100.00;71671.09;4977756;28;20459;-78
2022/06/09 00:52:30;;;;;;;14.48;9.05;;;;;;;-144.82;100.00;71671.09;4977793;28;20034;-79
2022/06/09 00:55:00;;;;;;;12.38;8.77;;;;;;;-144.82;100.00;71671.09;4994101;28;20022;-79
2022/06/09 00:57:35;;;;;;;13.68;9.10;;;;;;;-144.82;100.00;71671.09;4995155;28;20072;-79
2022/06/09 01:00:07;;;;;;;14.32;8.77;;;;;;;-144.82;100.00;71671.09;4994105;28;20026;-80
2022/06/09 01:02:33;;;;;;;13.55;8.88;;;;;;;-144.82;100.00;71671.09;4994894;28;20052;-79
2022/06/09 01:05:02;;;;;;;11.75;8.20;;;;;;;-144.82;100.00;71671.09;4994849;28;20030;-78
2022/06/09 01:07:32;;;;;;;11.80;7.97;;;;;;;-144.82;100.00;71671.09;4993498;28;20058;-79
2022/06/09 01:09:57;;;;;;;11.73;9.00;;;;;;;-144.82;100.00;71671.09;4993769;28;20077;-79
2022/06/09 01:12:30;;;;;;;12.50;9.05;;;;;;;-144.82;100.00;71671.09;4993689;28;20026;-80
2022/06/09 01:15:02;;;;;;;12.73;8.32;;;;;;;-144.82;100.00;71671.09;4977357;28;20022;-78
2022/06/09 01:17:45;;;;;;;13.25;8.88;;;;;;;-144.82;100.00;71671.09;4993702;28;20026;-80
2022/06/09 01:20:45;;;;;;;13.45;9.05;;;;;;;-144.82;100.00;71671.09;4977202;28;20033;-80
2022/06/09 01:23:47;;;;;;;11.35;8.05;;;;;;;-144.82;100.00;71671.09;4995040;28;20502;-78
2022/06/09 01:26:37;;;;;;;12.32;8.68;;;;;;;-144.82;100.00;71671.09;4993347;28;20022;-79
2022/06/09 01:29:20;;;;;;;14.85;8.73;;;;;;;-144.82;100.00;71671.09;4994686;28;20423;-79
2022/06/09 01:32:05;;;;;;;12.93;8.95;;;;;;;-144.82;100.00;71671.09;4993465;28;20467;-79
2022/06/09 01:34:41;;;;;;;15.30;9.48;;;;;;;-144.82;100.00;71671.09;4993641;28;20419;-79
2022/06/09 01:37:17;;;;;;;14.90;9.73;;;;;;;-144.82;100.00;71671.09;4994604;28;20077;-78
2022/06/09 01:40:02;;;;;;;16.13;9.60;;;;;;;-144.82;100.00;71671.09;4993073;28;20540;-78
2022/06/09 01:42:33;;;;;;;14.15;9.23;;;;;;;-144.82;100.00;71671.09;4976898;28;20034;-79
2022/06/09 01:45:13;;;;;;;14.88;9.80;;;;;;;-144.82;100.00;71671.09;4994332;28;20026;-80
2022/06/09 01:47:47;;;;;;;14.50;9.10;;;;;;;-144.82;100.00;71671.09;4976849;28;20026;-80
2022/06/09 01:50:18;;;;;;;16.55;10.38;;;;;;;-144.82;100.00;71671.09;4993897;28;20054;-79
2022/06/09 01:52:44;;;;;;;12.65;8.65;;;;;;;-144.82;100.00;71671.09;4976816;28;20523;-79
2022/06/09 01:55:14;;;;;;;16.27;10.23;;;;;;;-144.82;100.00;71671.09;4976701;28;20038;-79
2022/06/09 01:57:40;;;;;;;14.02;9.63;;;;;;;-144.82;100.00;71671.09;4976757;28;20043;-79
2022/06/09 02:00:12;;;;;;;13.48;10.20;;;;;;;-144.82;100.00;71671.09;4992812;28;20384;-80
2022/06/09 02:02:57;;;;;;;15.30;9.75;;;;;;;-144.82;100.00;71671.09;4994030;28;20080;-79
2022/06/09 02:05:29;;;;;;;15.52;10.43;;;;;;;-144.82;100.00;71671.09;4993092;28;20105;-80
2022/06/09 02:07:56;;;;;;;;;;;;;;;-144.82;100.00;71671.09;4994190;28;20050;-79
2022/06/09 02:10:27;;;;;;;15.38;9.20;;;;;;;-144.82;100.00;71671.09;4992922;28;19910;-79
2022/06/09 02:12:53;;;;;;;16.98;10.27;;;;;;;-144.82;100.00;71671.09;4993925;28;20081;-77
2022/06/09 02:15:24;;;;;;;15.43;10.65;;;;;;;-144.82;100.00;71671.09;4993886;28;20407;-78
2022/06/09 02:17:50;;;;;;;13.80;9.45;;;;;;;-144.82;100.00;71671.09;4992958;28;20053;-79
2022/06/09 02:20:18;;;;;;;14.90;9.77;;;;;;;-144.82;100.00;71671.09;4992854;28;20045;-79
2022/06/09 02:22:44;;;;;;;15.85;11.70;;;;;;;-144.82;100.00;71671.09;4992718;28;20519;-78
2022/06/09 02:25:09;;;;;;;14.38;9.88;;;;;;;-144.82;100.00;71671.09;4992659;28;20523;-80
2022/06/09 02:27:35;;;;;;;16.00;10.93;;;;;;;-144.82;100.00;71671.09;4992558;28;20019;-78
2022/06/09 02:30:01;;;;;;;16.17;10.25;;;;;;;-144.82;100.00;71671.09;4994101;28;20027;-79
2022/06/09 02:32:26;;;;;;;15.23;10.45;;;;;;;-144.82;100.00;71671.09;4992888;28;20113;-78
2022/06/09 02:34:51;;;;;;;18.50;10.25;;;;;;;-144.82;100.00;71671.09;4992769;28;20120;-79
2022/06/09 02:37:17;;;;;;;12.80;9.73;;;;;;;-144.82;100.00;71671.09;4994018;28;20026;-81
2022/06/09 02:39:42;;;;;;;19.33;10.13;;;;;;;-144.82;100.00;71671.09;4993863;28;20070;-80
2022/06/09 02:42:08;;;;;;;15.68;10.27;;;;;;;-144.82;100.00;71671.09;4993611;28;20022;-79
2022/06/09 02:44:34;;;;;;;14.48;9.93;;;;;;;-144.82;100.00;71671.09;4992705;28;20019;-79
2022/06/09 02:46:59;;;;;;;14.13;10.52;;;;;;;-144.82;100.00;71671.09;4993819;28;20031;-78
2022/06/09 02:49:26;;;;;;;14.82;10.15;;;;;;;-144.82;100.00;71671.09;4993789;28;20356;-78
2022/06/09 02:51:52;;;;;;;15.15;10.50;;;;;;;-144.82;100.00;71671.09;4992329;28;20108;-79
2022/06/09 02:54:17;;;;;;;16.73;11.48;;;;;;;-144.82;100.00;71671.09;4992411;28;20053;-79
2022/06/09 02:56:43;;;;;;;17.17;11.18;;;;;;;-144.82;100.00;71671.09;4976024;28;20496;-79
2022/06/09 02:59:10;;;;;;;16.92;10.63;;;;;;;-144.82;100.00;71671.09;4992500;28;20030;-79
2022/06/09 03:01:36;;;;;;;14.48;10.40;;;;;;;-144.82;100.00;71671.09;4994810;28;20034;-80
2022/06/09 03:04:02;;;;;;;16.30;12.27;;;;;;;-144.82;100.00;71671.09;4996018;28;20077;-80
2022/06/09 03:06:28;;;;;;;14.98;10.80;;;;;;;-144.82;100.00;71671.09;4996330;28;20076;-79
2022/06/09 03:08:53;;;;;;;14.88;9.80;;;;;;;-144.82;100.00;71671.09;4997123;28;20034;-80
2022/06/09 03:11:19;;;;;;;15.48;10.52;;;;;;;-144.82;100.00;71671.09;4997021;28;20026;-79
2022/06/09 03:13:44;;;;;;;14.68;9.90;;;;;;;-144.82;100.00;71671.09;4997379;28;20041;-80
2022/06/09 03:16:13;;;;;;;12.48;9.88;;;;;;;-144.82;100.00;71671.09;4996937;28;20064;-79
2022/06/09 03:18:39;;;;;;;15.27;9.57;;;;;;;-144.82;100.00;71671.09;4997004;28;20034;-79
2022/06/09 03:21:04;;;;;;;15.13;9.65;;;;;;;-144.82;100.00;71671.09;4997065;28;20041;-79
2022/06/09 03:23:31;;;;;;;13.85;10.00;;;;;;;-144.82;100.00;71671.09;4995798;28;20495;-78
2022/06/09 03:25:57;;;;;;;16.58;10.35;;;;;;;-144.82;100.00;71671.09;4996768;28;20419;-78
2022/06/09 03:28:22;;;;;;;14.15;9.95;;;;;;;-144.82;100.00;71671.09;4996919;28;20037;-78
2022/06/09 03:30:47;;;;;;;16.67;10.25;;;;;;;-144.82;100.00;71671.09;4995568;28;20379;-79
2022/06/09 03:33:13;;;;;;;13.70;10.15;;;;;;;-144.82;100.00;71671.09;4995672;28;20034;-80
2022/06/09 03:35:39;;;;;;;14.93;9.95;;;;;;;-144.82;100.00;71671.09;4995521;28;20030;-79
2022/06/09 03:38:04;;;;;;;13.38;10.10;;;;;;;-144.82;100.00;71671.09;4995553;28;20026;-79
2022/06/09 03:40:31;;;;;;;16.40;10.48;;;;;;;-144.82;100.00;71671.09;4995367;28;20059;-78
2022/06/09 03:42:57;;;;;;;14.25;10.07;;;;;;;-144.82;100.00;71671.09;4996808;28;20030;-78
2022/06/09 03:45:22;;;;;;;14.95;10.32;;;;;;;-144.82;100.00;71671.09;4996743;28;20052;-80
2022/06/09 03:47:48;;;;;;;13.70;9.75;;;;;;;-144.82;100.00;71671.09;4996569;28;20531;-79
2022/06/09 03:50:16;;;;;;;15.40;10.73;;;;;;;-144.82;100.00;71671.09;4996826;28;20030;-79
2022/06/09 03:52:42;;;;;;;17.00;10.63;;;;;;;-144.82;100.00;71671.09;4996882;28;20030;-79
2022/06/09 03:55:08;;;;;;;13.52;9.95;;;;;;;-144.82;100.00;71671.09;4996256;28;20027;-78
2022/06/09 03:57:33;;;;;;;14.48;9.77;;;;;;;-144.82;100.00;71671.09;4978894;28;20018;-79
2022/06/09 03:59:58;;;;;;;17.35;10.95;;;;;;;-144.82;100.00;71671.09;4994981;28;20026;-78
2022/06/09 04:02:24;;;;;;;19.67;10.95;;;;;;;-144.82;100.00;71671.09;4995006;28;20060;-78
2022/06/09 04:04:50;;;;;;;14.77;9.77;;;;;;;-144.82;100.00;71671.09;4994863;28;20026;-79
2022/06/09 04:07:15;;;;;;;15.80;9.18;;;;;;;-144.82;100.00;71671.09;4996043;28;20161;-79
2022/06/09 04:09:41;;;;;;;17.00;10.27;;;;;;;-144.82;100.00;71671.09;4994856;28;20105;-78
2022/06/09 04:12:06;;;;;;;17.33;10.75;;;;;;;-144.82;100.00;71671.09;4994648;28;20026;-79
2022/06/09 04:14:32;;;;;;;15.23;10.27;;;;;;;-144.82;100.00;71671.09;4994872;28;20019;-79
2022/06/09 04:16:57;;;;;;;13.20;9.52;;;;;;;-144.82;100.00;71671.09;4994883;28;20490;-79
2022/06/09 04:19:23;;;;;;;12.02;9.18;;;;;;;-144.82;100.00;71671.09;4995997;28;20420;-78
2022/06/09 04:21:49;;;;;;;12.35;9.40;;;;;;;-144.82;100.00;71671.09;4994708;28;20121;-78
2022/06/09 04:24:15;;;;;;;14.82;9.75;;;;;;;-144.82;100.00;71671.09;4995635;28;20109;-77
2022/06/09 04:26:41;;;;;;;16.20;10.45;;;;;;;-144.82;100.00;71671.09;4996023;28;20062;-79
2022/06/09 04:29:08;;;;;;;14.25;9.65;;;;;;;-144.82;100.00;71671.09;4994440;28;20028;-79
2022/06/09 04:31:34;;;;;;;17.05;10.52;;;;;;;-144.82;100.00;71671.09;4995948;28;20026;-78
2022/06/09 04:34:00;;;;;;;13.25;10.52;;;;;;;-144.82;100.00;71671.09;4994657;28;20042;-79
2022/06/09 04:36:25;;;;;;;15.55;11.00;;;;;;;-144.82;100.00;71671.09;4994793;28;20031;-79
2022/06/09 04:38:50;;;;;;;17.77;11.43;;;;;;;-144.82;100.00;71671.09;4995774;28;20084;-80
2022/06/09 04:41:17;;;;;;;14.60;10.85;;;;;;;-144.82;100.00;71671.09;4978208;28;20049;-79
2022/06/09 04:43:45;;;;;;;17.48;10.35;;;;;;;-144.82;100.00;71671.09;4994732;28;20360;-79
2022/06/09 04:46:13;;;;;;;14.90;10.68;;;;;;;-144.82;100.00;71671.09;4977974;28;20065;-79
2022/06/09 04:48:39;;;;;;;14.23;10.75;;;;;;;-144.82;100.00;71671.09;4977897;28;20072;-77
2022/06/09 04:51:12;;;;;;;16.42;11.20;;;;;;;-144.82;100.00;71671.09;4995994;28;20524;-79
2022/06/09 04:53:39;;;;;;;13.73;10.68;;;;;;;-144.82;100.00;71671.09;4997696;28;20034;-78
2022/06/09 04:56:07;;;;;;;15.15;10.88;;;;;;;-144.82;100.00;71671.09;4984603;28;20060;-78
2022/06/09 04:58:32;;;;;;;15.10;11.20;;;;;;;-144.82;100.00;71671.09;4974772;28;20046;-78
2022/06/09 05:00:59;;;;;;;14.27;11.00;;;;;;;-144.82;100.00;71671.09;4942411;28;20023;-80
2022/06/09 05:03:25;;;;;;;15.25;11.45;;;;;;;-144.82;100.00;71671.09;4975693;28;20042;-80
2022/06/09 05:05:51;;;;;;;15.65;10.43;;;;;;;-144.82;100.00;71671.09;4942218;28;20035;-80
2022/06/09 05:08:19;;;;;;;18.83;11.80;;;;;;;-144.82;100.00;71671.09;4958167;28;20524;-81
2022/06/09 05:10:46;;;;;;;16.13;11.80;;;;;;;-144.82;100.00;71671.09;4974283;28;20026;-80
2022/06/09 05:13:13;;;;;;;16.90;11.73;;;;;;;-144.82;100.00;71671.09;5002979;28;20101;-78
2022/06/09 05:16:00;;;;;;;15.50;11.55;;;;;;;-144.82;100.00;71671.09;5014854;28;20102;-81
2022/06/09 05:18:28;;;;;;;16.70;11.80;;;;;;;-144.82;100.00;71671.09;5013484;28;20064;-82
2022/06/09 05:20:56;;;;;;;18.02;10.60;;;;;;;-144.82;100.00;71671.09;4997791;28;20101;-83
2022/06/09 05:23:24;;;;;;;15.75;12.13;;;;;;;-144.82;100.00;71671.09;5014392;28;20080;-79
2022/06/09 05:25:59;;;;;;;16.73;12.27;;;;;;;-144.82;100.00;71671.09;4996933;28;20038;-81
2022/06/09 05:28:27;;;;;;;20.30;12.07;;;;;;;-144.82;100.00;71671.09;5014050;28;20521;-78
2022/06/09 05:31:03;;;;;;;17.77;11.45;;;;;;;-144.82;100.00;71671.09;4998398;28;20511;-80
2022/06/09 05:33:29;;;;;;;17.45;12.43;;;;;;;-144.82;100.00;71671.09;5017372;28;20493;-83
2022/06/09 05:35:56;;;;;;;16.27;11.70;;;;;;;-144.82;100.00;71671.09;5012573;28;20043;-82
2022/06/09 05:46:39;;;;;;;16.90;11.45;;;;;;;-144.82;100.00;71671.09;5014882;28;20096;-82
2022/06/09 05:49:05;;;;;;;18.45;11.90;;;;;;;-144.82;100.00;71671.09;4998355;28;20029;-82
2022/06/09 05:51:31;;;;;;;16.45;11.93;;;;;;;-144.82;100.00;71671.09;5013951;28;20025;-81
2022/06/09 05:53:57;;;;;;;18.98;11.88;;;;;;;-144.82;100.00;71671.09;5014127;28;20053;-81
2022/06/09 05:56:23;;;;;;;16.27;12.02;;;;;;;-144.82;100.00;71671.09;5014779;28;20029;-82
2022/06/09 05:58:48;;;;;;;23.75;12.23;;;;;;;-144.82;100.00;71671.09;5013579;28;20136;-82
2022/06/09 06:01:14;;;;;;;16.35;11.88;;;;;;;-144.82;100.00;71671.09;5014007;28;20462;-83
2022/06/09 06:03:41;;;;;;;19.67;12.43;;;;;;;-144.82;100.00;71671.09;5012239;28;20061;-83
2022/06/09 06:08:50;;;;;;;18.80;12.93;;;;;;;-144.82;100.00;71671.09;5012626;28;20069;-82
2022/06/09 06:11:16;;;;;;;18.58;12.63;;;;;;;-144.82;100.00;71671.09;5013878;28;20030;-82
2022/06/09 06:13:42;;;;;;;18.20;12.15;;;;;;;-144.82;100.00;71671.09;5014235;28;20033;-81
2022/06/09 06:16:08;;;;;;;18.08;12.73;;;;;;;-144.82;100.00;71671.09;5014130;28;20372;-82
2022/06/09 06:18:33;;;;;;;15.45;11.52;;;;;;;-144.82;100.00;71671.09;5013602;28;20066;-82
2022/06/09 06:20:59;;;;;;;18.42;11.63;;;;;;;-144.82;100.00;71671.09;4996232;28;20029;-82
2022/06/09 06:23:25;;;;;;;20.67;12.18;;;;;;;-144.82;100.00;71671.09;5013607;28;20449;-82
2022/06/09 06:25:52;;;;;;;15.10;11.38;;;;;;;-144.82;100.00;71671.09;5013139;28;20104;-82
2022/06/09 06:28:17;;;;;;;15.20;11.40;;;;;;;-144.82;100.00;71671.09;5014789;28;20463;-82
2022/06/09 06:30:42;;;;;;;14.15;10.50;;;;;;;-144.82;100.00;71671.09;5012610;28;20033;-84
2022/06/09 06:33:10;;;;;;;16.45;10.32;;;;;;;-144.82;100.00;71671.09;5009362;28;20022;-84
2022/06/09 06:35:40;;;;;;;12.32;10.35;;;;;;;-144.82;100.00;71671.09;4996795;28;20062;-84
2022/06/09 06:38:05;;;;;;;16.50;11.70;;;;;;;-144.82;100.00;71671.09;5017609;28;20490;-83
2022/06/09 06:40:32;;;;;;;13.73;10.30;;;;;;;-144.82;100.00;71671.09;4997202;28;20085;-82
2022/06/09 06:42:59;;;;;;;14.20;10.30;;;;;;;-144.82;100.00;71671.09;5006701;28;20081;-82
2022/06/09 06:45:25;;;;;;;12.35;11.05;;;;;;;-144.82;100.00;71671.09;4996724;28;20456;-82
2022/06/09 06:47:51;;;;;;;15.82;10.73;;;;;;;-144.82;100.00;71671.09;4996994;28;20095;-83
2022/06/09 06:50:17;;;;;;;14.57;11.05;;;;;;;-144.82;100.00;71671.09;4997823;28;20058;-82
2022/06/09 06:52:42;;;;;;;16.20;12.10;;;;;;;-144.82;100.00;71671.09;4997041;28;20061;-77
2022/06/09 06:55:13;;;;;;;12.82;10.65;;;;;;;-144.82;100.00;71671.09;4996000;28;20068;-76
2022/06/09 06:57:38;;;;;;;14.63;11.02;;;;;;;-144.82;100.00;71671.09;4995984;28;20129;-75
2022/06/09 07:00:08;;;;;;;14.55;11.18;;;;;;;-144.82;100.00;71671.09;4995723;28;20102;-75
2022/06/09 07:02:35;;;;;;;11.98;10.13;;;;;;;-144.82;100.00;71671.09;4997178;28;20029;-76
2022/06/09 07:05:01;;;;;;;14.27;10.43;;;;;;;-144.82;100.00;71671.09;4995734;28;20364;-75
2022/06/09 07:07:28;;;;;;;15.95;10.05;;;;;;;-144.82;100.00;71671.09;4996819;28;20111;-75
2022/06/09 07:09:53;;;;;;;14.40;10.20;;;;;;;-144.82;100.00;71671.09;4995639;28;20439;-75
2022/06/09 07:12:20;;;;;;;20.13;10.55;;;;;;;-144.82;100.00;71671.09;4996315;28;20030;-74
2022/06/09 07:14:46;;;;;;;29.20;14.15;;;;;;;-144.82;100.00;71671.09;4996536;28;20022;-75
2022/06/09 07:17:11;;;;;;;13.30;10.15;;;;;;;-144.82;100.00;71671.09;4978793;28;20133;-80
2022/06/09 07:19:37;;;;;;;10.95;9.40;;;;;;;-144.82;100.00;71671.09;4995545;28;20069;-79
2022/06/09 07:22:23;;;;;;;13.43;9.15;;;;;;;-144.82;100.00;71671.09;4995550;28;20054;-79
2022/06/09 07:24:50;;;;;;;10.57;9.18;;;;;;;-144.82;100.00;71671.09;4993614;28;20395;-76
2022/06/09 07:27:16;;;;;;;11.77;9.57;;;;;;;-144.82;100.00;71671.09;4994470;28;20034;-76
2022/06/09 07:29:43;;;;;;;9.80;8.82;;;;;;;-144.82;100.00;71671.09;4994837;28;20030;-75
2022/06/09 07:32:09;;;;;;;10.77;8.70;;;;;;;-144.82;100.00;71671.09;4978543;28;20117;-76
2022/06/09 07:34:35;;;;;;;9.70;8.13;;;;;;;-144.82;100.00;71671.09;4995933;28;20026;-76
2022/06/09 07:37:04;;;;;;;10.27;8.75;;;;;;;-144.82;100.00;71671.09;4997020;28;20105;-74
2022/06/09 07:39:30;;;;;;;10.63;9.13;;;;;;;-144.82;100.00;71671.09;4981127;28;20087;-75
2022/06/09 07:41:57;;;;;;;10.32;8.73;;;;;;;-144.82;100.00;71671.09;5004070;28;20523;-75
2022/06/09 07:44:23;;;;;;;10.15;8.07;;;;;;;-144.82;100.00;71671.09;4995135;28;20079;-77
2022/06/09 07:46:48;;;;;;;8.13;7.32;;;;;;;-144.82;100.00;71671.09;4995491;28;20408;-78
2022/06/09 07:49:14;;;;;;;10.32;8.60;;;;;;;-144.82;100.00;71671.09;4995237;28;20018;-77
2022/06/09 07:51:40;;;;;;;8.18;7.30;;;;;;;-144.82;100.00;71671.09;5004931;28;20042;-78
2022/06/09 07:54:07;;;;;;;8.48;7.53;;;;;;;-144.82;100.00;71671.09;4996383;28;20039;-76
2022/06/09 07:56:33;;;;;;;10.05;8.30;;;;;;;-144.82;100.00;71671.09;4996557;28;20031;-78
2022/06/09 07:59:02;;;;;;;9.07;8.18;;;;;;;-144.82;100.00;71671.09;4994815;28;20057;-77
2022/06/09 08:01:29;;;;;;;10.65;7.85;;;;;;;-144.82;100.00;71671.09;4959535;28;20035;-78
2022/06/09 08:03:56;;;;;;;9.10;8.00;;;;;;;-144.82;100.00;71671.09;4975488;28;20039;-77
2022/06/09 08:06:23;;;;;;;8.43;7.63;;;;;;;-144.82;100.00;71671.09;4976883;28;20358;-76
2022/06/09 08:08:55;;;;;;;9.68;8.77;;;;;;;-144.82;100.00;71671.09;4959128;28;20082;-77
2022/06/09 08:11:21;;;;;;;10.65;8.32;;;;;;;-144.82;100.00;71671.09;4959506;28;20042;-76
2022/06/09 08:13:47;;;;;;;10.25;9.13;;;;;;;-144.82;100.00;71671.09;4975369;28;20056;-77
2022/06/09 08:16:13;;;;;;;9.35;8.45;;;;;;;-144.82;100.00;71671.09;4981640;28;20045;-85
2022/06/09 08:18:38;;;;;;;10.52;9.50;;;;;;;-144.82;100.00;71671.09;5015875;28;20036;-85
2022/06/09 08:21:04;;;;;;;9.18;8.18;;;;;;;-144.82;100.00;71671.09;5020560;28;20021;-85
2022/06/09 08:23:31;;;;;;;9.85;8.85;;;;;;;-144.82;100.00;71671.09;5015641;28;20038;-86
2022/06/09 08:26:07;;;;;;;11.25;8.30;;;;;;;-144.82;100.00;71671.09;5014518;28;20108;-85
2022/06/09 08:28:33;;;;;;;9.43;8.43;;;;;;;-144.82;100.00;71671.09;5006738;28;20025;-84
2022/06/09 08:30:58;;;;;;;11.02;8.38;;;;;;;-144.82;100.00;71671.09;5016375;28;20032;-83
2022/06/09 08:33:26;;;;;;;13.07;9.30;;;;;;;-144.82;100.00;71671.09;5015079;28;20034;-79
2022/06/09 08:36:01;;;;;;;9.70;8.55;;;;;;;-144.82;100.00;71671.09;4997762;28;20033;-83
2022/06/09 08:38:27;;;;;;;10.02;8.63;;;;;;;-144.82;100.00;71671.09;4997832;28;20172;-83
2022/06/09 08:40:59;;;;;;;8.85;7.05;;;;;;;-144.82;100.00;71671.09;5017493;28;20025;-82
2022/06/09 08:43:40;;;;;;;11.25;8.32;;;;;;;-144.82;100.00;71671.09;5016011;28;20389;-81
2022/06/09 08:46:13;;;;;;;8.98;7.70;;;;;;;-144.82;100.00;71671.09;5013805;28;20029;-81
2022/06/09 08:48:41;;;;;;;10.25;8.60;;;;;;;-144.82;100.00;71671.09;5010845;28;20053;-77
2022/06/09 08:51:32;;;;;;;8.80;7.55;;;;;;;-144.82;100.00;71671.09;4962311;28;20030;-77
2022/06/09 08:54:05;;;;;;;9.63;7.60;;;;;;;-144.82;100.00;71671.09;4980403;28;20038;-77
2022/06/09 08:56:32;;;;;;;8.57;7.50;;;;;;;-144.82;100.00;71671.09;4995751;28;20352;-77
2022/06/09 08:59:13;;;;;;;9.90;7.82;;;;;;;-144.82;100.00;71671.09;4979806;28;20097;-77
2022/06/09 09:01:47;;;;;;;10.95;8.48;;;;;;;-144.82;100.00;71671.09;4993078;28;20093;-75
2022/06/09 09:04:42;;;;;;;13.20;9.32;;;;;;;-144.82;100.00;71671.09;4994339;28;20030;-76
2022/06/09 09:07:29;;;;;;;9.85;8.30;;;;;;;-144.82;100.00;71671.09;4994950;28;20535;-75
2022/06/09 09:10:39;;;;;;;14.15;8.40;;;;;;;-144.82;100.00;71671.09;4980228;28;20046;-83
2022/06/09 09:13:29;;;;;;;10.95;7.45;;;;;;;-144.82;100.00;71671.09;4941537;28;20043;-79
2022/06/09 09:16:19;;;;;;;8.15;7.28;;;;;;;-144.82;100.00;71671.09;4995667;28;20038;-79
2022/06/09 09:18:55;;;;;;;13.77;8.95;;;;;;;-144.82;100.00;71671.09;4995374;28;20033;-78
2022/06/09 09:21:50;;;;;;;8.70;7.80;;;;;;;-144.82;100.00;71671.09;4994504;28;20022;-78
2022/06/09 09:24:23;;;;;;;9.38;7.63;;;;;;;-144.82;100.00;71671.09;4993736;28;20034;-74
2022/06/09 09:27:09;;;;;;;12.63;7.82;;;;;;;-144.82;100.00;71671.09;4994871;28;20033;-78
2022/06/09 09:29:48;;;;;;;10.50;8.23;;;;;;;-144.82;100.00;71671.09;4993656;28;20051;-76
2022/06/09 09:32:23;;;;;;;8.57;7.43;;;;;;;-144.82;100.00;71671.09;4977108;28;20037;-76
2022/06/09 09:34:51;;;;;;;8.63;7.60;;;;;;;-144.82;100.00;71671.09;4994438;28;20053;-75
2022/06/09 09:37:38;;;;;;;10.57;7.70;;;;;;;-144.82;100.00;71671.09;4960993;28;20049;-76
2022/06/09 09:40:22;;;;;;;9.52;6.85;;;;;;;-144.82;100.00;71671.09;4993424;28;20030;-76
2022/06/09 09:43:13;;;;;;;8.35;7.45;;;;;;;-144.82;100.00;71671.09;4993375;28;20041;-75
2022/06/09 09:45:44;;;;;;;10.40;7.40;;;;;;;-144.82;100.00;71671.09;4993232;28;20096;-76
2022/06/09 09:48:19;;;;;;;7.70;6.90;;;;;;;-144.82;100.00;71671.09;4977732;28;20038;-77
2022/06/09 09:51:06;;;;;;;8.68;6.40;;;;;;;-144.82;100.00;71671.09;4994703;28;20050;-78
2022/06/09 09:53:38;;;;;;;9.75;6.78;;;;;;;-144.82;100.00;71671.09;4976828;28;20033;-76
2022/06/09 09:56:16;;;;;;;7.32;6.07;;;;;;;-144.82;100.00;71671.09;4994562;28;20032;-76
2022/06/09 09:58:48;;;;;;;7.55;6.57;;;;;;;-144.82;100.00;71671.09;4994215;28;20057;-76
2022/06/09 10:01:16;;;;;;;9.35;8.23;;;;;;;-144.82;100.00;71671.09;4994317;28;20104;-77
2022/06/09 10:09:49;;;;;;;11.95;7.72;;;;;;;-144.82;100.00;71671.09;4991464;28;20534;-77
2022/06/09 10:12:24;;;;;;;10.38;7.95;;;;;;;-144.82;100.00;71671.09;4994158;28;20105;-79
2022/06/09 10:15:06;;;;;;;10.90;7.40;;;;;;;-144.82;100.00;71671.09;4992533;28;20023;-77
2022/06/09 10:17:54;;;;;;;7.80;6.88;;;;;;;-144.82;100.00;71671.09;4992789;28;20029;-78
2022/06/09 10:20:35;;;;;;;7.38;6.60;;;;;;;-144.82;100.00;71671.09;4993819;28;20080;-77
2022/06/09 10:23:09;;;;;;;6.80;5.78;;;;;;;-144.82;100.00;71671.09;4994357;28;20031;-77
2022/06/09 10:25:56;;;;;;;7.47;6.60;;;;;;;-144.82;100.00;71671.09;4994057;28;20056;-78
2022/06/09 10:28:50;;;;;;;6.82;6.15;;;;;;;-144.82;100.00;71671.09;4994072;28;20538;-78
2022/06/09 10:31:28;;;;;;;5.85;5.30;;;;;;;-144.82;100.00;71671.09;4993869;28;20408;-78
2022/06/09 10:34:31;;;;;;;7.10;5.70;;;;;;;-144.82;100.00;71671.09;4994328;28;20026;-78
2022/06/09 10:37:01;;;;;;;7.60;6.05;;;;;;;-144.82;100.00;71671.09;4993010;28;20023;-78
2022/06/09 10:39:50;;;;;;;7.90;6.05;;;;;;;-144.82;100.00;71671.09;4994048;28;20044;-78
2022/06/09 10:42:33;;;;;;;10.32;7.35;;;;;;;-144.82;100.00;71671.09;4957472;28;20031;-77
2022/06/09 10:45:26;;;;;;;9.40;7.22;;;;;;;-144.82;100.00;71671.09;4974231;28;20030;-75
2022/06/09 10:57:16;;;;;;;9.75;8.20;;;;;;;-144.82;100.00;71671.09;4974601;28;20476;-74
2022/06/09 10:59:56;;;;;;;10.10;7.53;;;;;;;-144.82;100.00;71671.09;4973073;28;20034;-78
2022/06/09 11:02:26;;;;;;;9.25;7.07;;;;;;;-144.82;100.00;71671.09;4972689;28;20027;-78
2022/06/09 11:04:53;;;;;;;10.07;6.25;;;;;;;-144.82;100.00;71671.09;4972959;28;20130;-79
2022/06/09 11:07:27;;;;;;;11.18;6.47;;;;;;;-144.82;100.00;71671.09;4972826;28;20034;-76
2022/06/09 11:09:56;;;;;;;6.97;6.22;;;;;;;-144.82;100.00;71671.09;4984341;28;20018;-81
2022/06/09 11:12:42;;;;;;;8.45;6.72;;;;;;;-144.82;100.00;71671.09;4994118;28;20034;-83
2022/06/09 11:15:19;;;;;;;10.00;5.97;;;;;;;-144.82;100.00;71671.09;4994348;28;20072;-81
2022/06/09 11:18:14;;;;;;;7.22;6.15;;;;;;;-144.82;100.00;71671.09;4977575;28;20050;-82
2022/06/09 11:20:43;;;;;;;10.50;6.25;;;;;;;-144.82;100.00;71671.09;4994566;28;20037;-82
2022/06/09 11:23:46;;;;;;;8.73;6.22;;;;;;;-144.82;100.00;71671.09;4996218;28;20034;-87
2022/06/09 11:26:48;;;;;;;10.68;6.72;;;;;;;-144.82;100.00;71671.09;4998078;28;20029;-79
2022/06/09 11:29:25;;;;;;;8.02;6.47;;;;;;;-144.82;100.00;71671.09;4996725;28;20114;-80
2022/06/09 11:31:59;;;;;;;11.63;6.20;;;;;;;-144.82;100.00;71671.09;4996038;28;20045;-79
2022/06/09 11:34:55;;;;;;;10.07;6.55;;;;;;;-144.82;100.00;71671.09;4996659;28;20057;-80
2022/06/09 11:37:47;;;;;;;7.90;6.38;;;;;;;-144.82;100.00;71671.09;5008725;28;20114;-79
2022/06/09 11:40:45;;;;;;;6.05;5.45;;;;;;;-144.82;100.00;71671.09;4979686;28;20085;-80
2022/06/09 11:43:50;;;;;;;6.47;5.70;;;;;;;-144.82;100.00;71671.09;4997189;28;20076;-82